• Join FlightAware (Why Join?)
  • Login
  • US Flag 
06:32AM EDT


 

Airport Tracker/Info


-or-


 

Live Flight TrackerFlight Track Log ✈ FLG4322 ✈ 23-Apr-2013 ✈ KSTL - KMEM

Flight Track Log - Related Links

Times and Time Zones

All times are in EDT time to prevent confusion due to time zone crossing. See the FLG4322 flight status page for this flight to view local times or setup timezone preferences in your user account.

Time Position Orientation Groundspeed Altitude Reporting Facility
EDT Latitude Longitude Course Direction KTS MPH feet Rate Location/Type
01:20PM 38.7558 -90.3564 184° South 152 175 1,300  Level FAA TRACON SMA TRACON (SMA)
01:20PM 38.7700 -90.3875 300° West 166 191 2,400 1,920 Climbing FAA TRACON SMA TRACON (SMA)
01:21PM 38.7683 -90.4119 265° West 193 222 3,100 2,520 Climbing FAA TRACON SMA TRACON (SMA)
01:21PM 38.7589 -90.4264 230° Southwest 183 211 4,100 2,460 Climbing FAA TRACON SMA TRACON (SMA)
01:21PM 38.7453 -90.4358 208° Southwest 181 208 4,800 2,520 Climbing FAA TRACON SMA TRACON (SMA)
01:22PM 38.7236 -90.4408 190° South 204 235 5,800 3,060 Climbing FAA TRACON SMA TRACON (SMA)
01:22PM 38.7044 -90.4436 186° South 218 251 6,800 2,820 Climbing FAA TRACON SMA TRACON (SMA)
01:22PM 38.6853 -90.4464 186° South 227 261 7,700 2,700 Climbing FAA TRACON SMA TRACON (SMA)
01:23PM 38.5943 -90.4991 184° South  Level FlightAware Approximate
01:23PM 38.6594 -90.4494 185° South 240 276 8,600  Level FAA TRACON SMA TRACON (SMA)
01:23PM 38.6375 -90.4519 185° South 254 292 9,300 2,400 Climbing FAA TRACON SMA TRACON (SMA)
01:23PM 38.6147 -90.4544 185° South 265 305 10,200 2,400 Climbing FAA TRACON SMA TRACON (SMA)
01:24PM 38.4950 -90.5088 184° South  Level FlightAware Approximate
01:24PM 38.5853 -90.4575 185° South 274 315 10,900  Level FAA TRACON SMA TRACON (SMA)
01:24PM 38.5600 -90.4603 185° South 289 333 11,300 1,440 Climbing FAA TRACON SMA TRACON (SMA)
01:24PM 38.5267 -90.4642 185° South 309 356 11,900 1,620 Climbing FAA TRACON SMA TRACON (SMA)
01:25PM 38.3958 -90.5188 184° South  Level FlightAware Approximate
01:25PM 38.4711 -90.4706 185° South 327 376 12,900  Level FAA TRACON SMA TRACON (SMA)
01:25PM 38.4353 -90.4744 185° South 334 384 13,600 1,920 Climbing FAA TRACON SMA TRACON (SMA)
01:26PM 38.4067 -90.4781 186° South 337 388 14,200 1,860 Climbing FAA TRACON SMA TRACON (SMA)
01:26PM 38.3772 -90.4806 184° South 341 392 14,900 1,920 Climbing FAA TRACON SMA TRACON (SMA)
01:26PM 38.3417 -90.4867 188° South 338 389 15,500 1,500 Climbing FAA TRACON SMA TRACON (SMA)
01:27PM 38.3156 -90.4986 200° South 333 383 15,900 1,320 Climbing FAA TRACON SMA TRACON (SMA)
01:27PM 38.3006 -90.5269 236° Southwest 329 379 16,400 1,440 Climbing FAA TRACON SMA TRACON (SMA)
01:27PM 38.3006 -90.5681 270° West 328 377 16,900 2,100 Climbing FAA TRACON SMA TRACON (SMA)
01:28PM 38.3119 -90.5975 296° West 317 365 17,800 1,980 Climbing FAA TRACON SMA TRACON (SMA)
01:28PM 38.3236 -90.6264 297° West 306 352 18,200 1,320 Climbing FAA TRACON SMA TRACON (SMA)
01:28PM 38.3356 -90.6575 296° West 305 351 18,700 1,560 Climbing FAA TRACON SMA TRACON (SMA)
01:29PM 38.3508 -90.6953 297° West 310 357 19,300 1,500 Climbing FAA TRACON SMA TRACON (SMA)
01:29PM 38.3628 -90.7267 296° West 313 360 19,700 1,200 Climbing FAA TRACON SMA TRACON (SMA)
01:29PM 38.3781 -90.7664 296° West 320 368 20,100 900 Climbing FAA TRACON SMA TRACON (SMA)
01:30PM 38.3897 -90.7986 295° West 323 372 20,300 1,020 Climbing FAA TRACON SMA TRACON (SMA)
01:30PM 38.4008 -90.8314 293° West 329 379 20,800 1,200 Climbing FAA TRACON SMA TRACON (SMA)
01:30PM 38.4158 -90.8739 294° West 335 386 21,100 1,020 Climbing FAA TRACON SMA TRACON (SMA)
01:31PM 38.4164 -90.9100 271° West 339 390 21,500 1,020 Climbing FAA TRACON SMA TRACON (SMA)
01:31PM 38.4006 -90.9394 236° Southwest 337 388 21,800 1,020 Climbing FAA TRACON SMA TRACON (SMA)
01:31PM 38.3692 -90.9631 211° Southwest 345 397 22,200 1,020 Climbing FAA TRACON SMA TRACON (SMA)
01:32PM 38.3364 -90.9619 178° South 367 422 22,500 1,020 Climbing FAA TRACON SMA TRACON (SMA)
01:32PM 38.3036 -90.9528 168° South 379 436 22,900 720 Climbing FAA TRACON SMA TRACON (SMA)
01:32PM 38.2711 -90.9472 172° South 391 450 23,000 120 Climbing FAA TRACON SMA TRACON (SMA)
01:33PM 38.2281 -90.9461 179° South 397 457 23,000  Level FAA TRACON SMA TRACON (SMA)
01:33PM 38.1925 -90.9447 178° South 407 468 23,000  Level FAA TRACON SMA TRACON (SMA)
01:33PM 38.1492 -90.9453 181° South 409 471 23,000  Level FAA TRACON SMA TRACON (SMA)
01:34PM 38.1139 -90.9453 180° South 414 476 23,000  Level FAA TRACON SMA TRACON (SMA)
01:34PM 38.0789 -90.9467 182° South 417 480 23,000  Level FAA TRACON SMA TRACON (SMA)
01:34PM 38.0339 -90.9447 178° South 417 480 23,000  Level FAA TRACON SMA TRACON (SMA)
01:35PM 37.9989 -90.9453 181° South 416 479 23,000  Level FAA TRACON SMA TRACON (SMA)
01:35PM 37.9622 -90.9433 178° South 418 481 23,000  Level FAA TRACON SMA TRACON (SMA)
01:35PM 37.9181 -90.9422 179° South 417 480 23,000  Level FAA TRACON SMA TRACON (SMA)
01:36PM 37.8825 -90.9417 179° South 414 476 23,000  Level FAA TRACON SMA TRACON (SMA)
01:36PM 37.8642 -90.9408 178° South 413 475 23,000  Level FAA TRACON SMA TRACON (SMA)
01:36PM 37.7947 -90.9889 209° Southwest 416 479 23,000  Level Kansas City Center
01:37PM 37.6797 -90.9864 179° South 415 478 23,000  Level Kansas City Center
01:38PM 37.5686 -90.9839 179° South 417 480 23,000  Level Kansas City Center
01:39PM 37.4531 -90.9828 180° South 415 478 23,000  Level Kansas City Center
01:40PM 37.3144 -90.9803 179° South 412 474 23,000  Level Kansas City Center
01:42PM 37.2000 -90.9764 178° South 410 472 23,000  Level Kansas City Center
01:43PM 37.0831 -90.9764 180° South 412 474 23,000  Level Kansas City Center
01:43PM 36.9806 -90.9750 179° South 421 484 23,000  Level Memphis Center
01:44PM 36.8658 -90.9742 180° South 414 476 23,000  Level Memphis Center
01:45PM 36.7511 -90.9706 179° South 414 476 23,000  Level Memphis Center
01:46PM 36.6344 -90.9697 180° South 414 476 23,000  Level Memphis Center
01:47PM 36.5219 -90.9689 180° South 420 483 23,000  Level Memphis Center
01:48PM 36.4053 -90.9397 169° South 420 483 23,000  Level Memphis Center
01:49PM 36.2889 -90.9081 168° South 425 489 23,000  Level Memphis Center
01:50PM 36.1742 -90.8789 168° South 425 489 23,000  Level Memphis Center
01:51PM 36.0597 -90.8500 168° South 430 495 23,000 -900 Level Memphis Center
01:52PM 35.9450 -90.8211 168° South 430 495 21,300 -2,100 Descending Memphis Center
01:53PM 35.8389 -90.7922 168° South 416 479 18,900 -2,400 Descending Memphis Center
01:54PM 35.7347 -90.7661 168° South 399 459 16,500 -2,460 Descending Memphis Center
01:55PM 35.6264 -90.7350 167° South 374 430 14,000 -2,400 Descending Memphis Center
01:56PM 35.5306 -90.7117 169° South 362 417 11,800 -2,040 Descending Memphis Center
01:57PM 35.4450 -90.6781 162° South 337 388 10,000 -1,080 Descending Memphis Center
01:58PM 35.4161 -90.5839 111° Southeast 283 326 9,700 -960 Descending Memphis Center
01:59PM 35.4119 -90.4844 93° East 267 307 8,100 -1,500 Descending Memphis Center
02:00PM 35.3994 -90.3953 100° East 279 321 6,700 -1,500 Descending Memphis Center
02:01PM 35.3933 -90.3011 95° East 279 321 5,200 -900 Descending Memphis Center
02:02PM 35.3869 -90.2144 95° East 271 312 5,000 -120 Descending Memphis Center
02:03PM 35.3847 -90.1381 92° East 248 285 5,000  Level Memphis Center
02:04PM 35.3783 -90.0592 96° East 234 269 5,000  Level Memphis Center
02:05PM 35.3364 -90.0261 147° Southeast 186 214 5,000 -480 Level Memphis Center
02:07PM 35.2833 -90.0000 158° South 147 169 4,000 -480 Descending KMEM
02:08PM 35.2500 -90.0000 180° South 142 163 4,000 -420 Level KMEM
02:09PM 35.2000 -89.9833 165° South 158 182 3,200 -840 Descending KMEM
02:10PM 35.1667 -89.9833 180° South 157 181 2,400 -840 Descending KMEM